»·PEaware :: UAL654 KSEA-KSLC

UAL654 :: KSEA-KSLC

FLIGHT INFORMATION

Flight Status: Arrived
Operator:
United Airlines
More flights by this operator :: More flights under this callsign
Pilot: Rehan R. (23450)
Aircraft: BOEING 777-300
(B773)
More flights by this aircraft type
Origin: KSEA Seattle-Tacoma Intl
United States
Destination: KSLC Salt Lake City Intl
United States
More flights between these airports :: More routes between these airports
Route: +SUMMA1 SUMMA J54 BKE BYI SKEES5
File this flight plan on PilotEdge
Remarks:
Altitude:
(Current/Filed)
31,000ft
Speed:
(Current/Filed)
480kts
Departed: 18-Nov-20 04:42 PM
Arrived: 18-Nov-20 06:07 PM
Distance/Time
Traveled:
597nm/1:25
Distance/Time
To Go:
Arrived

Flight Plot

Page will automatically refresh every two minutes.

Flight plan parsing failed; only flown route is shown


Map Options




Map Legend


Flown Route
Filed Route
Departure Airport
Arrival Airport
Navaid (VOR, NDB)
Fix

Horizontal Profiles

Position Reports

Time Latitude Longitude Heading Altitude Ground
Speed
18-Nov-20 15:52 47.444212 -122.304113 68 446ft 0kts
18-Nov-20 15:53 47.444212 -122.304113 68 446ft 0kts
18-Nov-20 15:54 47.444212 -122.304113 68 446ft 0kts
18-Nov-20 15:55 47.444212 -122.304113 68 446ft 0kts
18-Nov-20 15:56 47.444212 -122.304113 68 446ft 0kts
18-Nov-20 15:57 47.444212 -122.304113 68 446ft 0kts
18-Nov-20 15:58 47.444212 -122.304113 68 446ft 0kts
18-Nov-20 15:59 47.444212 -122.304113 68 446ft 0kts
18-Nov-20 16:00 47.444212 -122.304113 68 446ft 0kts
18-Nov-20 16:01 47.444212 -122.304113 68 446ft 0kts
18-Nov-20 16:02 47.444212 -122.304113 68 446ft 0kts
18-Nov-20 16:03 47.444212 -122.304113 68 446ft 0kts
18-Nov-20 16:04 47.444212 -122.304113 68 446ft 0kts
18-Nov-20 16:05 47.444212 -122.304113 68 446ft 0kts
18-Nov-20 16:06 47.444212 -122.304113 68 446ft 0kts
18-Nov-20 16:07 47.444212 -122.304113 68 446ft 0kts
18-Nov-20 16:08 47.444212 -122.304113 68 446ft 0kts
18-Nov-20 16:09 47.444212 -122.304113 68 446ft 0kts
18-Nov-20 16:10 47.444212 -122.304113 68 446ft 0kts
18-Nov-20 16:11 47.444212 -122.304113 68 446ft 0kts
18-Nov-20 16:12 47.444212 -122.304113 68 446ft 0kts
18-Nov-20 16:13 47.444212 -122.304113 68 446ft 0kts
18-Nov-20 16:14 47.444212 -122.304113 68 446ft 0kts
18-Nov-20 16:15 47.444212 -122.304113 68 446ft 0kts
18-Nov-20 16:16 47.444212 -122.304113 68 446ft 0kts
18-Nov-20 16:17 47.444212 -122.304113 68 446ft 0kts
18-Nov-20 16:18 47.444212 -122.304113 68 446ft 0kts
18-Nov-20 16:19 47.444212 -122.304113 68 446ft 0kts
18-Nov-20 16:20 47.444212 -122.304113 68 446ft 0kts
18-Nov-20 16:21 47.444212 -122.304113 68 446ft 0kts
18-Nov-20 16:22 47.444212 -122.304113 68 446ft 0kts
18-Nov-20 16:23 47.444212 -122.304113 68 446ft 0kts
18-Nov-20 16:24 47.444197 -122.304170 68 446ft 1kts
18-Nov-20 16:25 47.443759 -122.305085 34 446ft 2kts
18-Nov-20 16:27 47.443095 -122.305416 4 446ft 0kts
18-Nov-20 16:28 47.443095 -122.305416 4 446ft 0kts
18-Nov-20 16:29 47.443556 -122.305744 309 446ft 7kts
18-Nov-20 16:30 47.447222 -122.306147 0 446ft 17kts
18-Nov-20 16:31 47.452349 -122.306195 359 446ft 17kts
18-Nov-20 16:32 47.457612 -122.306151 359 446ft 19kts
18-Nov-20 16:33 47.462277 -122.306156 359 446ft 13kts
18-Nov-20 16:34 47.463367 -122.306534 283 446ft 0kts
18-Nov-20 16:35 47.463368 -122.306540 283 446ft 0kts
18-Nov-20 16:36 47.463369 -122.306546 283 446ft 0kts
18-Nov-20 16:37 47.463370 -122.306552 283 446ft 0kts
18-Nov-20 16:38 47.463371 -122.306558 283 446ft 0kts
18-Nov-20 16:39 47.463372 -122.306563 283 446ft 0kts
18-Nov-20 16:40 47.463373 -122.306569 283 446ft 0kts
18-Nov-20 16:41 47.463438 -122.306974 283 446ft 6kts
18-Nov-20 16:42 47.458607 -122.307767 180 446ft 83kts
18-Nov-20 16:43 47.408612 -122.308166 180 2453ft 214kts
18-Nov-20 16:44 47.341233 -122.308852 183 5859ft 261kts
18-Nov-20 16:45 47.264608 -122.309193 184 8490ft 286kts
18-Nov-20 16:46 47.188006 -122.269706 149 9007ft 303kts
18-Nov-20 16:46 47.126841 -122.220182 163 9471ft 301kts
18-Nov-20 16:48 47.026684 -122.172745 166 10967ft 359kts
18-Nov-20 16:48 46.943993 -122.135304 166 12495ft 385kts
18-Nov-20 16:50 46.821568 -122.079594 166 15161ft 402kts
18-Nov-20 16:50 46.731192 -122.039035 166 16930ft 412kts
18-Nov-20 16:51 46.622555 -121.978217 144 18793ft 433kts
18-Nov-20 16:52 46.554882 -121.830188 119 20591ft 451kts
18-Nov-20 16:53 46.492055 -121.670671 121 22264ft 461kts
18-Nov-20 16:54 46.426824 -121.508061 121 23809ft 471kts
18-Nov-20 16:55 46.359762 -121.342484 122 25217ft 481kts
18-Nov-20 16:56 46.291266 -121.174160 121 26517ft 490kts
18-Nov-20 16:57 46.222208 -121.002350 121 27704ft 498kts
18-Nov-20 16:58 46.151071 -120.828499 122 28764ft 506kts
18-Nov-20 16:59 46.078665 -120.652845 122 29688ft 512kts
18-Nov-20 17:00 46.005766 -120.477120 122 30846ft 510kts
18-Nov-20 17:01 45.932905 -120.302584 122 30997ft 508kts
18-Nov-20 17:02 45.860181 -120.128355 122 30996ft 508kts
18-Nov-20 17:03 45.786729 -119.955094 122 30996ft 508kts
18-Nov-20 17:04 45.713447 -119.783074 122 30997ft 508kts
18-Nov-20 17:05 45.639114 -119.610490 123 30996ft 508kts
18-Nov-20 17:06 45.564810 -119.439176 123 30996ft 508kts
18-Nov-20 17:07 45.490971 -119.267451 123 30997ft 508kts
18-Nov-20 17:08 45.416443 -119.095806 123 30997ft 508kts
18-Nov-20 17:09 45.341873 -118.925675 123 30996ft 508kts
18-Nov-20 17:10 45.266971 -118.755851 123 30996ft 508kts
18-Nov-20 17:11 45.191432 -118.585609 123 30996ft 508kts
18-Nov-20 17:12 45.116079 -118.416793 123 30997ft 508kts
18-Nov-20 17:13 45.040284 -118.247986 124 30997ft 508kts
18-Nov-20 17:14 44.965075 -118.080364 124 30996ft 508kts
18-Nov-20 17:15 44.888027 -117.911545 124 30996ft 508kts
18-Nov-20 17:16 44.809820 -117.746293 128 30998ft 506kts
18-Nov-20 17:17 44.723432 -117.589982 129 30997ft 506kts
18-Nov-20 17:18 44.637190 -117.432444 129 30997ft 506kts
18-Nov-20 17:19 44.552672 -117.275568 129 30996ft 506kts
18-Nov-20 17:20 44.466861 -117.118298 129 30996ft 506kts
18-Nov-20 17:21 44.381192 -116.962426 129 30997ft 506kts
18-Nov-20 17:22 44.294713 -116.805961 129 30997ft 506kts
18-Nov-20 17:23 44.208346 -116.650543 129 30996ft 506kts
18-Nov-20 17:24 44.122105 -116.496182 129 30996ft 506kts
18-Nov-20 17:25 44.035087 -116.341259 129 30996ft 506kts
18-Nov-20 17:26 43.948610 -116.188116 129 30997ft 506kts
18-Nov-20 17:27 43.861185 -116.034110 130 30997ft 506kts
18-Nov-20 17:28 43.773927 -115.881208 130 30996ft 506kts
18-Nov-20 17:29 43.686338 -115.728530 130 30996ft 506kts
18-Nov-20 17:30 43.598520 -115.576251 130 30997ft 506kts
18-Nov-20 17:31 43.510706 -115.424769 130 30997ft 506kts
18-Nov-20 17:32 43.422889 -115.274064 130 30996ft 506kts
18-Nov-20 17:33 43.334044 -115.122380 130 30996ft 506kts
18-Nov-20 17:34 43.245769 -114.972444 130 30996ft 506kts
18-Nov-20 17:35 43.157140 -114.822673 130 30997ft 506kts
18-Nov-20 17:36 43.068040 -114.672872 131 30997ft 506kts
18-Nov-20 17:37 42.979495 -114.524754 131 30996ft 506kts
18-Nov-20 17:38 42.889849 -114.375547 131 30996ft 506kts
18-Nov-20 17:39 42.800495 -114.227569 131 30997ft 506kts
18-Nov-20 17:40 42.711072 -114.079538 131 30997ft 506kts
18-Nov-20 17:41 42.621195 -113.932690 131 30996ft 506kts
18-Nov-20 17:42 42.527588 -113.790554 136 30966ft 498kts
18-Nov-20 17:43 42.430967 -113.662258 138 29937ft 482kts
18-Nov-20 17:44 42.335386 -113.537325 138 28667ft 473kts
18-Nov-20 17:45 42.241602 -113.414214 137 27411ft 464kts
18-Nov-20 17:46 42.150254 -113.293932 138 26171ft 456kts
18-Nov-20 17:47 42.060168 -113.175827 138 24944ft 448kts
18-Nov-20 17:48 41.972303 -113.060019 138 24016ft 442kts
18-Nov-20 17:49 41.884443 -112.944708 138 23788ft 440kts
18-Nov-20 17:50 41.792181 -112.825061 138 23730ft 478kts
18-Nov-20 17:51 41.699412 -112.705309 138 22571ft 440kts
18-Nov-20 17:52 41.614049 -112.595144 138 19814ft 414kts
18-Nov-20 17:53 41.533251 -112.491801 140 16983ft 394kts
18-Nov-20 17:54 41.451900 -112.400260 137 16093ft 383kts
18-Nov-20 17:55 41.382733 -112.298150 135 15662ft 343kts
18-Nov-20 17:56 41.324185 -112.212010 135 14511ft 295kts
18-Nov-20 17:57 41.269078 -112.131271 135 12625ft 292kts
18-Nov-20 17:58 41.215021 -112.052775 135 11268ft 285kts
18-Nov-20 17:59 41.147708 -112.017400 177 10135ft 243kts
18-Nov-20 18:00 41.085726 -112.009591 178 9309ft 206kts
18-Nov-20 18:01 41.030846 -112.002929 179 8556ft 192kts
18-Nov-20 18:02 40.977294 -111.996640 173 7519ft 193kts
18-Nov-20 18:03 40.923609 -111.990370 174 6486ft 191kts
18-Nov-20 18:04 40.870847 -111.984223 174 5474ft 188kts
18-Nov-20 18:05 40.818898 -111.978181 174 4480ft 186kts
18-Nov-20 18:06 40.785506 -111.974894 207 4240ft 19kts
18-Nov-20 18:07 40.783927 -111.975936 206 4240ft 8kts
18-Nov-20 18:08 40.783898 -111.977163 312 4240ft 2kts
18-Nov-20 18:09 40.784367 -111.978321 5 4240ft 0kts
18-Nov-20 18:10 40.784750 -111.978336 356 4240ft 0kts
18-Nov-20 18:11 40.784750 -111.978336 356 4240ft 0kts
18-Nov-20 18:12 40.784750 -111.978336 356 4240ft 0kts
18-Nov-20 18:13 40.784750 -111.978336 356 4240ft 0kts

Navigation Log

Ident Type
Flight plan parsing failed, navigation log unavailable